Time;durP1;ratioP1;P1;durP2;ratioP2;P2;SDS_P1;SDS_P2;PMS_P1;PMS_P2;Temp;Humidity;BMP_temperature;BMP_pressure;BME280_temperature;BME280_humidity;BME280_pressure;Samples;Min_cycle;Max_cycle;Signal;HPM_P1;HPM_P2
2023/11/26 00:02:08;;;;;;;0.80;0.57;;;1.60;99.90;;;;;;5052542;28;20421;-72
2023/11/26 00:04:34;;;;;;;2.65;0.88;;;1.60;99.90;;;;;;5051619;28;20488;-72
2023/11/26 00:07:00;;;;;;;2.85;1.00;;;1.60;99.90;;;;;;5034634;28;20029;-72
2023/11/26 00:09:26;;;;;;;0.30;0.30;;;1.60;99.90;;;;;;5034108;28;20428;-72
2023/11/26 00:11:52;;;;;;;2.50;0.82;;;1.70;99.90;;;;;;5034654;28;20111;-72
2023/11/26 00:14:18;;;;;;;0.90;0.75;;;1.70;99.90;;;;;;5050204;28;20069;-72
2023/11/26 00:16:44;;;;;;;0.70;0.68;;;1.80;99.90;;;;;;5018208;28;20060;-72
2023/11/26 00:19:10;;;;;;;2.15;0.70;;;1.80;99.90;;;;;;5044145;28;20033;-72
2023/11/26 00:21:36;;;;;;;1.25;0.73;;;1.80;99.90;;;;;;5034352;28;20063;-71
2023/11/26 00:24:02;;;;;;;0.68;0.68;;;1.70;99.90;;;;;;5051366;28;20052;-71
2023/11/26 00:26:28;;;;;;;1.95;1.20;;;1.70;99.90;;;;;;5033496;28;20472;-71
2023/11/26 00:28:54;;;;;;;1.15;0.80;;;1.60;99.90;;;;;;5034249;28;20392;-72
2023/11/26 00:31:22;;;;;;;1.17;1.00;;;1.70;99.90;;;;;;5052653;28;20469;-71
2023/11/26 00:33:48;;;;;;;1.63;1.17;;;1.70;99.90;;;;;;5034966;28;20892;-72
2023/11/26 00:36:19;;;;;;;0.47;0.38;;;1.80;99.90;;;;;;5034280;28;20116;-72
2023/11/26 00:38:46;;;;;;;1.03;0.90;;;1.80;99.90;;;;;;5033259;28;20121;-71
2023/11/26 00:41:13;;;;;;;3.40;1.45;;;1.80;99.90;;;;;;5034227;28;20275;-72
2023/11/26 00:43:40;;;;;;;0.65;0.57;;;1.80;99.90;;;;;;5034305;28;20095;-71
2023/11/26 00:46:06;;;;;;;1.48;1.10;;;1.80;99.90;;;;;;5034000;28;20485;-72
2023/11/26 00:48:31;;;;;;;2.03;0.93;;;1.80;99.90;;;;;;5046678;28;20036;-71
2023/11/26 00:50:57;;;;;;;0.85;0.52;;;1.90;99.90;;;;;;5031408;28;20539;-72
2023/11/26 00:53:24;;;;;;;1.90;0.90;;;1.80;99.90;;;;;;5030459;28;20052;-71
2023/11/26 00:55:50;;;;;;;2.70;1.27;;;1.70;99.90;;;;;;5030132;28;20496;-72
2023/11/26 00:58:16;;;;;;;1.45;0.95;;;1.60;99.90;;;;;;5048808;28;20077;-71
2023/11/26 01:00:42;;;;;;;2.05;0.60;;;1.30;99.90;;;;;;5028701;28;20033;-71
2023/11/26 01:03:08;;;;;;;0.22;0.22;;;1.20;99.90;;;;;;5032129;28;20396;-72
2023/11/26 01:05:34;;;;;;;1.65;0.85;;;1.20;99.90;;;;;;5027633;28;20033;-71
2023/11/26 01:08:01;;;;;;;1.30;0.52;;;1.10;99.90;;;;;;5032038;28;20466;-71
2023/11/26 01:10:27;;;;;;;0.93;0.52;;;1.20;99.90;;;;;;5032600;28;20034;-72
2023/11/26 01:12:53;;;;;;;2.13;1.00;;;1.20;99.90;;;;;;5033642;28;20479;-71
2023/11/26 01:15:19;;;;;;;1.83;0.65;;;1.30;99.90;;;;;;5043477;28;20060;-71
2023/11/26 01:17:45;;;;;;;1.33;0.65;;;1.30;99.90;;;;;;5033380;28;20060;-72
2023/11/26 01:20:12;;;;;;;0.98;0.43;;;1.40;99.90;;;;;;5032766;28;20056;-72
2023/11/26 01:22:38;;;;;;;3.78;1.40;;;1.40;99.90;;;;;;5033504;28;20024;-72
2023/11/26 01:25:05;;;;;;;0.20;0.20;;;1.50;99.90;;;;;;5032841;28;20504;-72
2023/11/26 01:27:32;;;;;;;3.20;0.70;;;1.50;99.90;;;;;;5033332;28;20037;-72
2023/11/26 01:29:58;;;;;;;1.48;1.17;;;1.40;99.90;;;;;;5032853;28;20037;-72
2023/11/26 01:32:25;;;;;;;1.30;1.02;;;1.30;99.90;;;;;;5033506;28;20017;-72
2023/11/26 01:34:51;;;;;;;2.75;1.40;;;1.30;99.90;;;;;;5032973;28;20033;-72
2023/11/26 01:37:18;;;;;;;2.20;1.42;;;1.30;99.90;;;;;;5036333;28;20033;-72
2023/11/26 01:39:44;;;;;;;19.90;2.13;;;1.30;99.90;;;;;;5039427;28;20062;-72
2023/11/26 01:42:11;;;;;;;2.92;1.10;;;1.30;99.90;;;;;;5039911;28;20082;-72
2023/11/26 01:44:37;;;;;;;1.38;1.00;;;1.30;99.90;;;;;;5039355;28;20064;-72
2023/11/26 01:47:06;;;;;;;1.52;1.17;;;1.30;99.90;;;;;;5039776;28;20052;-72
2023/11/26 01:49:35;;;;;;;2.80;1.85;;;1.30;99.90;;;;;;5040357;28;20033;-72
2023/11/26 01:52:02;;;;;;;6.13;1.60;;;1.30;99.90;;;;;;5037368;28;20061;-72
2023/11/26 01:54:31;;;;;;;5.13;0.90;;;1.20;99.90;;;;;;5039476;28;20040;-72
2023/11/26 01:56:59;;;;;;;0.73;0.73;;;1.20;99.90;;;;;;5040099;28;20036;-72
2023/11/26 01:59:25;;;;;;;0.70;0.63;;;1.20;99.90;;;;;;5039070;28;20033;-72
2023/11/26 02:01:53;;;;;;;5.60;2.00;;;1.20;99.90;;;;;;5039606;28;20041;-72
2023/11/26 02:04:19;;;;;;;15.30;1.83;;;1.30;99.90;;;;;;5039470;28;20035;-72
2023/11/26 02:06:45;;;;;;;4.75;2.05;;;1.20;99.90;;;;;;5055450;28;20017;-72
2023/11/26 02:09:13;;;;;;;2.70;1.42;;;1.20;99.90;;;;;;5038826;28;20083;-72
2023/11/26 02:11:39;;;;;;;0.98;0.70;;;1.10;99.90;;;;;;5036096;28;20094;-71
2023/11/26 02:14:06;;;;;;;4.18;1.25;;;1.00;99.90;;;;;;5036990;28;20021;-72
2023/11/26 02:16:32;;;;;;;3.50;1.52;;;1.00;99.90;;;;;;5061583;28;20021;-72
2023/11/26 02:18:58;;;;;;;7.18;1.42;;;1.00;99.90;;;;;;5038562;28;20037;-72
2023/11/26 02:21:24;;;;;;;5.25;1.83;;;1.00;99.90;;;;;;5036475;28;20033;-72
2023/11/26 02:23:50;;;;;;;2.15;1.30;;;0.90;99.90;;;;;;5046315;28;20397;-72
2023/11/26 02:26:15;;;;;;;2.28;0.85;;;1.00;99.90;;;;;;5056796;28;20029;-72
2023/11/26 02:28:42;;;;;;;1.85;1.48;;;1.00;99.90;;;;;;5056101;28;20036;-72
2023/11/26 02:31:10;;;;;;;1.85;1.10;;;1.00;99.90;;;;;;5038099;28;20021;-72
2023/11/26 02:33:36;;;;;;;2.08;1.05;;;1.00;99.90;;;;;;5022704;28;20495;-72
2023/11/26 02:36:04;;;;;;;1.33;1.13;;;1.10;99.90;;;;;;5037347;28;20580;-72
2023/11/26 02:38:30;;;;;;;1.58;1.10;;;1.10;99.90;;;;;;5052356;28;20103;-72
2023/11/26 02:40:55;;;;;;;5.07;1.92;;;1.20;99.90;;;;;;5030413;28;20046;-72
2023/11/26 02:43:21;;;;;;;1.02;0.73;;;1.20;99.90;;;;;;5053548;28;20568;-72
2023/11/26 02:45:50;;;;;;;1.58;1.05;;;1.20;99.90;;;;;;5034864;28;20037;-72
2023/11/26 02:48:19;;;;;;;1.23;0.80;;;1.30;99.90;;;;;;5035460;28;20025;-72
2023/11/26 02:50:45;;;;;;;1.05;0.85;;;1.30;99.90;;;;;;5032847;28;20036;-72
2023/11/26 02:53:10;;;;;;;2.42;1.70;;;1.30;99.90;;;;;;5032695;28;20034;-72
2023/11/26 02:55:36;;;;;;;2.65;2.25;;;1.40;99.90;;;;;;5030380;28;20072;-72
2023/11/26 02:58:02;;;;;;;2.17;1.27;;;1.50;99.90;;;;;;5017927;28;20037;-72
2023/11/26 03:00:28;;;;;;;2.15;1.80;;;1.40;99.90;;;;;;5054126;28;20052;-73
2023/11/26 03:02:54;;;;;;;2.25;0.60;;;1.30;99.90;;;;;;5053759;28;20025;-72
2023/11/26 03:05:21;;;;;;;1.92;1.25;;;1.20;99.90;;;;;;5052710;28;20025;-72
2023/11/26 03:07:57;;;;;;;2.47;1.20;;;1.40;99.90;;;;;;5053491;28;20393;-72
2023/11/26 03:13:11;;;;;;;4.35;1.60;;;1.40;99.90;;;;;;5051682;28;20032;-72
2023/11/26 03:15:40;;;;;;;2.55;1.55;;;1.40;99.90;;;;;;5037138;28;20128;-72
2023/11/26 03:18:12;;;;;;;2.80;1.42;;;1.50;99.90;;;;;;5032724;28;20039;-72
2023/11/26 03:20:41;;;;;;;3.00;1.27;;;1.50;99.90;;;;;;5036511;28;20033;-72
2023/11/26 03:23:09;;;;;;;1.92;1.42;;;1.50;99.90;;;;;;5032797;28;20045;-72
2023/11/26 03:25:36;;;;;;;7.25;1.80;;;1.60;99.90;;;;;;5015925;28;20045;-72
2023/11/26 03:28:04;;;;;;;3.45;2.00;;;1.60;99.90;;;;;;5049156;28;20040;-72
2023/11/26 03:30:31;;;;;;;2.75;2.05;;;1.70;99.90;;;;;;5015516;28;20090;-72
2023/11/26 03:32:57;;;;;;;4.32;2.10;;;1.70;99.90;;;;;;5053436;28;20677;-72
2023/11/26 03:35:24;;;;;;;2.92;1.15;;;1.60;99.90;;;;;;5037345;28;20108;-72
2023/11/26 03:37:54;;;;;;;2.83;1.52;;;1.50;99.90;;;;;;5027451;28;20346;-72
2023/11/26 03:40:21;;;;;;;3.10;1.88;;;1.50;99.90;;;;;;5035409;28;20031;-72
2023/11/26 03:42:47;;;;;;;1.73;0.80;;;1.50;99.90;;;;;;5031802;28;20405;-71
2023/11/26 03:45:13;;;;;;;6.65;1.85;;;1.30;99.90;;;;;;5017032;28;20032;-70
2023/11/26 03:47:39;;;;;;;3.13;1.33;;;1.50;99.90;;;;;;5034675;28;20026;-71
2023/11/26 03:50:09;;;;;;;2.75;1.80;;;1.50;99.90;;;;;;5017214;28;20025;-71
2023/11/26 03:52:35;;;;;;;2.40;1.83;;;1.60;99.90;;;;;;5015283;28;20045;-71
2023/11/26 03:55:01;;;;;;;2.90;2.25;;;1.70;99.90;;;;;;5040843;28;20610;-71
2023/11/26 03:57:27;;;;;;;4.22;1.25;;;1.80;99.90;;;;;;5031456;28;20037;-71
2023/11/26 03:59:53;;;;;;;2.50;1.75;;;1.60;99.90;;;;;;5026290;28;20030;-71
2023/11/26 04:02:18;;;;;;;3.40;2.05;;;1.60;99.90;;;;;;5018027;28;20116;-71
2023/11/26 04:04:46;;;;;;;5.57;1.92;;;1.60;99.90;;;;;;5051235;28;20048;-71
2023/11/26 04:07:12;;;;;;;1.27;1.05;;;1.60;99.90;;;;;;5052543;28;20051;-72
2023/11/26 04:09:38;;;;;;;6.63;1.58;;;1.70;99.90;;;;;;5030138;28;20079;-71
2023/11/26 04:12:04;;;;;;;8.10;1.13;;;1.60;99.90;;;;;;5029644;28;20025;-71
2023/11/26 04:14:34;;;;;;;1.60;1.15;;;1.60;99.90;;;;;;5051157;28;20025;-71
2023/11/26 04:17:01;;;;;;;1.27;1.13;;;1.70;99.90;;;;;;5031641;28;20444;-71
2023/11/26 04:19:27;;;;;;;0.63;0.60;;;1.80;99.90;;;;;;5030510;28;20172;-72
2023/11/26 04:21:53;;;;;;;1.95;1.70;;;1.90;99.90;;;;;;5027322;28;20116;-71
2023/11/26 04:24:18;;;;;;;1.85;1.60;;;1.90;99.90;;;;;;5033667;28;20025;-72
2023/11/26 04:26:44;;;;;;;0.60;0.60;;;1.90;99.90;;;;;;5052363;28;20039;-71
2023/11/26 04:29:10;;;;;;;4.32;1.52;;;1.90;99.90;;;;;;5031642;28;20100;-71
2023/11/26 04:31:36;;;;;;;1.95;1.10;;;1.90;99.90;;;;;;5030782;28;20593;-71
2023/11/26 04:34:04;;;;;;;1.65;1.52;;;1.80;99.90;;;;;;5048133;28;20084;-71
2023/11/26 04:36:31;;;;;;;2.40;1.88;;;1.90;99.90;;;;;;5030694;28;20025;-71
2023/11/26 04:38:57;;;;;;;1.80;1.67;;;1.90;99.90;;;;;;5026967;28;20064;-71
2023/11/26 04:41:23;;;;;;;2.85;2.50;;;1.90;99.90;;;;;;5014235;28;20017;-71
2023/11/26 04:43:49;;;;;;;6.13;3.00;;;2.00;99.90;;;;;;5026961;28;20189;-71
2023/11/26 04:46:15;;;;;;;5.10;3.50;;;2.00;99.90;;;;;;5050638;28;20549;-71
2023/11/26 04:48:42;;;;;;;5.47;2.95;;;2.10;99.90;;;;;;5030336;28;20433;-71
2023/11/26 04:51:08;;;;;;;3.78;2.03;;;2.10;99.90;;;;;;5032226;28;20029;-72
2023/11/26 04:53:36;;;;;;;5.97;3.22;;;2.10;99.90;;;;;;5050529;28;20020;-72
2023/11/26 04:56:03;;;;;;;3.90;2.33;;;2.20;99.90;;;;;;5030467;28;20040;-72
2023/11/26 04:58:28;;;;;;;3.15;2.75;;;2.20;99.90;;;;;;5018841;28;20033;-71
2023/11/26 05:00:54;;;;;;;4.72;2.42;;;2.30;99.90;;;;;;5029740;28;20120;-72
2023/11/26 05:03:23;;;;;;;6.75;2.67;;;2.40;99.90;;;;;;5051096;28;20099;-72
2023/11/26 05:05:49;;;;;;;6.78;3.05;;;2.50;99.90;;;;;;5047695;28;20099;-72
2023/11/26 05:08:16;;;;;;;4.55;2.97;;;2.50;99.90;;;;;;5032273;28;20029;-73
2023/11/26 05:10:41;;;;;;;4.30;2.30;;;2.50;99.90;;;;;;5029694;28;20034;-72
2023/11/26 05:13:08;;;;;;;4.32;2.83;;;2.50;99.90;;;;;;5029226;28;20036;-72
2023/11/26 05:15:34;;;;;;;3.30;1.98;;;2.50;99.90;;;;;;5039986;28;20033;-71
2023/11/26 05:17:59;;;;;;;6.40;1.95;;;2.50;99.90;;;;;;5032873;28;20032;-72
2023/11/26 05:20:26;;;;;;;3.38;1.85;;;2.50;99.90;;;;;;5047418;28;20024;-74
2023/11/26 05:22:54;;;;;;;3.33;2.35;;;2.40;99.90;;;;;;5051060;28;20116;-72
2023/11/26 05:25:24;;;;;;;2.38;1.85;;;2.40;99.90;;;;;;5049705;28;20025;-72
2023/11/26 05:27:50;;;;;;;2.47;1.67;;;2.30;99.90;;;;;;5029766;28;20095;-71
2023/11/26 05:30:16;;;;;;;3.80;1.45;;;2.30;99.90;;;;;;5031592;28;20478;-72
2023/11/26 05:32:41;;;;;;;3.75;2.20;;;2.20;99.90;;;;;;5030057;28;20472;-71
2023/11/26 05:35:13;;;;;;;12.55;2.53;;;2.20;99.90;;;;;;5045400;28;20464;-71
2023/11/26 05:37:42;;;;;;;2.70;2.10;;;2.20;99.90;;;;;;5050813;28;20044;-72
2023/11/26 05:40:11;;;;;;;5.97;2.85;;;2.20;99.90;;;;;;5031936;28;20128;-71
2023/11/26 05:42:37;;;;;;;3.00;1.52;;;2.20;99.90;;;;;;5027608;28;20036;-71
2023/11/26 05:45:04;;;;;;;2.85;1.45;;;2.20;99.90;;;;;;5031374;28;20064;-72
2023/11/26 05:47:31;;;;;;;3.03;1.77;;;2.10;99.90;;;;;;5050635;28;20035;-71
2023/11/26 05:49:58;;;;;;;2.50;1.83;;;2.10;99.90;;;;;;5029529;28;20466;-72
2023/11/26 05:52:24;;;;;;;3.55;2.15;;;2.10;99.90;;;;;;5046573;28;20021;-71
2023/11/26 05:54:51;;;;;;;2.55;1.95;;;2.10;99.90;;;;;;5055282;28;20046;-72
2023/11/26 05:57:17;;;;;;;2.13;1.35;;;2.00;99.90;;;;;;5034891;28;20044;-71
2023/11/26 05:59:42;;;;;;;2.20;1.67;;;2.10;99.90;;;;;;5046622;28;20056;-72
2023/11/26 06:02:09;;;;;;;4.35;2.47;;;2.00;99.90;;;;;;5050193;28;20028;-71
2023/11/26 06:04:34;;;;;;;2.05;1.45;;;2.00;99.90;;;;;;5009651;28;20025;-71
2023/11/26 06:07:00;;;;;;;3.50;2.85;;;2.00;99.90;;;;;;5047198;28;20119;-72
2023/11/26 06:09:26;;;;;;;6.65;3.63;;;2.00;99.90;;;;;;5031113;28;20032;-72
2023/11/26 06:11:52;;;;;;;3.47;2.42;;;2.00;99.90;;;;;;5050316;28;20025;-72
2023/11/26 06:14:18;;;;;;;4.72;3.40;;;2.00;99.90;;;;;;5040759;28;20138;-72
2023/11/26 06:16:45;;;;;;;3.55;2.35;;;2.00;99.90;;;;;;5050603;28;20033;-72
2023/11/26 06:19:16;;;;;;;7.22;2.17;;;2.00;99.90;;;;;;5048593;28;20597;-72
2023/11/26 06:21:42;;;;;;;8.32;3.13;;;2.10;99.90;;;;;;5050619;28;20033;-71
2023/11/26 06:24:11;;;;;;;4.57;2.72;;;2.10;99.90;;;;;;5049124;28;20029;-72
2023/11/26 06:26:38;;;;;;;5.38;2.63;;;2.20;99.90;;;;;;5030387;28;20037;-72
2023/11/26 06:29:05;;;;;;;7.28;3.72;;;2.30;99.90;;;;;;5031938;28;20028;-72
2023/11/26 06:31:31;;;;;;;3.88;2.58;;;2.20;99.90;;;;;;5033271;28;20409;-71
2023/11/26 06:33:57;;;;;;;5.80;3.03;;;2.20;99.90;;;;;;5050378;28;20033;-71
2023/11/26 06:36:26;;;;;;;12.23;4.00;;;2.30;99.90;;;;;;5027983;28;20020;-72
2023/11/26 06:38:54;;;;;;;3.65;2.42;;;2.20;99.90;;;;;;5052437;28;20056;-72
2023/11/26 06:41:29;;;;;;;4.68;2.55;;;2.20;99.90;;;;;;5035708;28;20094;-72
2023/11/26 06:43:59;;;;;;;8.48;3.75;;;2.20;99.90;;;;;;5032862;28;20045;-72
2023/11/26 06:46:27;;;;;;;5.30;3.27;;;2.30;99.90;;;;;;5036429;28;20159;-71
2023/11/26 06:48:53;;;;;;;5.03;3.08;;;2.30;99.90;;;;;;5034429;28;20034;-71
2023/11/26 06:51:19;;;;;;;7.85;4.43;;;2.30;99.90;;;;;;5035338;28;20487;-71
2023/11/26 06:53:47;;;;;;;8.13;2.75;;;2.20;99.90;;;;;;5032527;28;20028;-71
2023/11/26 06:56:14;;;;;;;4.30;2.13;;;2.30;99.90;;;;;;5034526;28;20037;-71
2023/11/26 06:58:41;;;;;;;7.40;4.20;;;2.30;99.90;;;;;;5015650;28;20029;-71
2023/11/26 07:01:07;;;;;;;5.35;2.72;;;2.30;99.90;;;;;;5033225;28;20517;-72
2023/11/26 07:03:34;;;;;;;5.38;2.95;;;2.30;99.90;;;;;;5035172;28;20039;-71
2023/11/26 07:06:05;;;;;;;4.90;2.17;;;2.40;99.90;;;;;;5038180;28;20118;-71
2023/11/26 07:08:31;;;;;;;5.07;3.03;;;2.40;99.90;;;;;;5031856;28;20442;-70
2023/11/26 07:10:58;;;;;;;5.65;3.38;;;2.30;99.90;;;;;;5050189;28;20032;-71
2023/11/26 07:13:25;;;;;;;4.10;1.90;;;2.40;99.90;;;;;;5027685;28;20103;-71
2023/11/26 07:15:51;;;;;;;3.97;2.20;;;2.40;99.90;;;;;;5035204;28;20040;-71
2023/11/26 07:18:21;;;;;;;3.10;2.47;;;2.50;99.90;;;;;;5052686;28;20051;-71
2023/11/26 07:20:47;;;;;;;2.75;2.35;;;2.50;99.90;;;;;;5035345;28;20029;-71
2023/11/26 07:23:13;;;;;;;5.47;2.72;;;2.50;99.90;;;;;;5033937;28;20109;-70
2023/11/26 07:25:39;;;;;;;7.35;2.40;;;2.50;99.90;;;;;;5034835;28;20503;-71
2023/11/26 07:28:11;;;;;;;3.95;2.08;;;2.50;99.90;;;;;;5034708;28;20052;-72
2023/11/26 07:30:37;;;;;;;4.15;3.28;;;2.50;99.90;;;;;;5035613;28;20042;-71
2023/11/26 07:33:04;;;;;;;7.28;3.05;;;2.60;99.90;;;;;;5052027;28;20025;-71
2023/11/26 07:35:30;;;;;;;5.88;3.22;;;2.60;99.90;;;;;;5034249;28;20211;-71
2023/11/26 07:37:57;;;;;;;5.32;3.20;;;2.60;99.90;;;;;;5034907;28;20108;-70
2023/11/26 07:40:23;;;;;;;4.60;2.58;;;2.60;99.90;;;;;;5042531;28;20033;-71
2023/11/26 07:42:50;;;;;;;9.05;4.65;;;2.60;99.90;;;;;;5034766;28;20033;-71
2023/11/26 07:45:16;;;;;;;5.45;3.60;;;2.70;99.90;;;;;;5034835;28;20098;-72
2023/11/26 07:47:42;;;;;;;4.38;3.33;;;2.60;99.90;;;;;;5035811;28;20035;-71
2023/11/26 07:50:08;;;;;;;4.60;2.67;;;2.60;99.90;;;;;;5032460;28;20029;-71
2023/11/26 07:52:34;;;;;;;4.10;3.13;;;2.60;99.90;;;;;;5018263;28;20034;-71
2023/11/26 07:55:07;;;;;;;5.57;2.83;;;2.70;99.90;;;;;;5048160;28;20515;-70
2023/11/26 07:57:36;;;;;;;4.32;3.20;;;2.70;99.90;;;;;;5035672;28;20060;-71
2023/11/26 08:00:04;;;;;;;4.18;2.92;;;2.60;99.90;;;;;;5035381;28;20033;-70
2023/11/26 08:02:30;;;;;;;9.63;3.45;;;2.60;99.90;;;;;;5059643;28;20481;-71
2023/11/26 08:04:57;;;;;;;6.28;3.50;;;2.60;99.90;;;;;;5019889;28;20083;-71
2023/11/26 08:07:24;;;;;;;6.82;3.47;;;2.60;99.90;;;;;;5034277;28;20013;-70
2023/11/26 08:09:53;;;;;;;3.63;2.03;;;2.60;99.90;;;;;;5033671;28;20116;-70
2023/11/26 08:12:23;;;;;;;4.00;2.15;;;2.60;99.90;;;;;;5034225;28;20028;-71
2023/11/26 08:14:52;;;;;;;7.20;3.20;;;2.70;99.90;;;;;;5034365;28;20025;-72
2023/11/26 08:17:19;;;;;;;7.00;3.13;;;2.70;99.90;;;;;;5034229;28;20115;-70
2023/11/26 08:19:45;;;;;;;5.95;3.58;;;2.80;99.90;;;;;;5035190;28;20115;-70
2023/11/26 08:22:12;;;;;;;3.05;2.35;;;2.80;99.90;;;;;;5051901;28;20037;-70
2023/11/26 08:24:46;;;;;;;3.88;2.28;;;2.80;99.90;;;;;;5032935;28;20040;-69
2023/11/26 08:27:17;;;;;;;4.18;2.35;;;2.90;99.90;;;;;;5043371;28;20079;-71
2023/11/26 08:29:43;;;;;;;2.17;1.60;;;2.90;99.90;;;;;;5033309;28;20366;-70
2023/11/26 08:32:12;;;;;;;8.45;3.35;;;3.10;99.90;;;;;;5051661;28;20051;-70
2023/11/26 08:34:41;;;;;;;4.93;2.67;;;3.00;99.90;;;;;;5048091;28;20024;-71
2023/11/26 08:37:08;;;;;;;3.58;2.03;;;3.10;99.90;;;;;;5032121;28;20037;-70
2023/11/26 08:39:38;;;;;;;3.17;1.48;;;3.10;99.90;;;;;;5013778;28;20122;-73
2023/11/26 08:42:04;;;;;;;6.03;2.63;;;3.20;99.90;;;;;;5048806;28;20485;-72
2023/11/26 08:44:33;;;;;;;3.10;1.45;;;3.40;99.90;;;;;;5033168;28;20032;-73
2023/11/26 08:47:00;;;;;;;7.70;3.22;;;3.40;99.90;;;;;;5050084;28;20036;-72
2023/11/26 08:49:28;;;;;;;2.72;2.40;;;3.50;99.90;;;;;;5032275;28;20025;-73
2023/11/26 08:51:54;;;;;;;3.67;1.92;;;3.60;99.90;;;;;;5033207;28;20075;-73
2023/11/26 08:54:23;;;;;;;3.95;2.33;;;3.60;99.90;;;;;;5032340;28;20033;-73
2023/11/26 08:56:52;;;;;;;2.42;1.98;;;3.60;99.90;;;;;;5041311;28;20033;-72
2023/11/26 08:59:18;;;;;;;8.23;2.35;;;3.70;99.90;;;;;;5058044;28;20039;-72
2023/11/26 09:01:45;;;;;;;3.38;2.15;;;3.60;99.90;;;;;;5030413;28;20029;-71
2023/11/26 09:04:11;;;;;;;3.65;2.40;;;3.70;99.90;;;;;;5020197;28;20041;-72
2023/11/26 09:06:38;;;;;;;2.72;1.80;;;3.70;99.90;;;;;;5014902;28;20047;-73
2023/11/26 09:09:04;;;;;;;16.55;3.08;;;3.70;99.90;;;;;;5029765;28;20057;-72
2023/11/26 09:11:30;;;;;;;5.53;2.17;;;3.80;99.90;;;;;;5032192;28;20053;-73
2023/11/26 09:13:58;;;;;;;2.45;1.88;;;3.80;99.90;;;;;;5033496;28;20024;-73
2023/11/26 09:16:25;;;;;;;5.47;3.13;;;4.00;99.90;;;;;;5048093;28;20032;-72
2023/11/26 09:18:51;;;;;;;4.60;2.63;;;4.00;99.90;;;;;;5050819;28;20387;-72
2023/11/26 09:21:18;;;;;;;5.10;2.00;;;4.00;99.90;;;;;;5030613;28;20029;-72
2023/11/26 09:23:44;;;;;;;7.38;2.53;;;4.10;99.90;;;;;;5059601;28;20087;-72
2023/11/26 09:26:14;;;;;;;6.13;2.95;;;4.00;99.90;;;;;;5030699;28;20134;-73
2023/11/26 09:28:39;;;;;;;3.17;1.88;;;4.00;99.90;;;;;;5059239;28;20025;-73
2023/11/26 09:31:07;;;;;;;2.67;1.55;;;4.10;99.90;;;;;;5048574;28;20102;-72
2023/11/26 09:33:36;;;;;;;1.20;0.98;;;4.20;99.90;;;;;;5030284;28;20108;-72
2023/11/26 09:36:04;;;;;;;4.40;2.22;;;4.30;99.90;;;;;;5029689;28;20040;-73
2023/11/26 09:38:30;;;;;;;3.35;1.75;;;4.40;99.90;;;;;;5059068;28;20431;-73
2023/11/26 09:40:55;;;;;;;3.45;1.73;;;4.40;99.90;;;;;;5048136;28;20136;-73
2023/11/26 09:43:25;;;;;;;3.70;1.73;;;4.60;99.90;;;;;;5059205;28;20150;-73
2023/11/26 09:45:51;;;;;;;3.67;2.45;;;4.50;99.90;;;;;;5032383;28;20489;-72
2023/11/26 09:48:16;;;;;;;2.40;1.50;;;4.50;99.90;;;;;;5050299;28;20025;-73
2023/11/26 09:50:50;;;;;;;4.32;3.08;;;4.60;99.90;;;;;;5032717;28;20384;-73
2023/11/26 09:53:17;;;;;;;4.93;1.67;;;4.60;99.90;;;;;;5031839;28;20030;-73
2023/11/26 09:55:44;;;;;;;5.75;1.88;;;4.60;99.90;;;;;;5032407;28;20070;-73
2023/11/26 09:58:10;;;;;;;2.60;1.95;;;4.50;99.90;;;;;;5036071;28;20138;-72
2023/11/26 10:00:36;;;;;;;8.95;2.40;;;4.60;99.90;;;;;;5041135;28;20679;-72
2023/11/26 10:03:02;;;;;;;7.68;2.08;;;4.70;99.90;;;;;;5066153;28;20142;-72
2023/11/26 10:05:29;;;;;;;4.93;2.30;;;4.80;99.90;;;;;;5037575;28;20512;-72
2023/11/26 10:07:55;;;;;;;10.48;2.60;;;4.90;99.90;;;;;;5031840;28;20029;-72
2023/11/26 10:10:23;;;;;;;6.30;2.30;;;4.80;99.90;;;;;;5053861;28;20435;-72
2023/11/26 10:12:57;;;;;;;6.65;2.53;;;4.90;99.90;;;;;;5037233;28;20414;-72
2023/11/26 10:15:28;;;;;;;3.55;2.28;;;5.00;99.90;;;;;;5053436;28;20036;-72
2023/11/26 10:18:03;;;;;;;7.50;2.63;;;5.10;99.90;;;;;;5036811;28;20361;-72
2023/11/26 10:20:30;;;;;;;2.25;1.33;;;5.20;99.90;;;;;;5057956;28;20062;-73
2023/11/26 10:22:56;;;;;;;3.58;1.85;;;5.20;99.90;;;;;;5040709;28;20469;-72
2023/11/26 10:25:24;;;;;;;5.78;2.50;;;5.20;99.90;;;;;;5034079;28;20051;-72
2023/11/26 10:27:50;;;;;;;6.13;2.15;;;5.30;99.90;;;;;;5036570;28;20021;-73
2023/11/26 10:30:32;;;;;;;4.43;2.10;;;5.50;99.90;;;;;;5035984;28;20784;-73
2023/11/26 10:33:05;;;;;;;4.22;2.35;;;5.40;99.90;;;;;;5036840;28;20447;-72
2023/11/26 10:35:57;;;;;;;5.05;2.70;;;5.50;99.90;;;;;;5036040;28;20037;-73
2023/11/26 10:38:25;;;;;;;11.13;3.10;;;5.60;99.90;;;;;;5051141;28;20496;-74
2023/11/26 10:40:55;;;;;;;7.95;3.10;;;5.80;99.90;;;;;;5042143;28;20127;-73
2023/11/26 10:43:25;;;;;;;5.22;2.25;;;6.20;99.90;;;;;;5031838;28;20037;-73
2023/11/26 10:45:51;;;;;;;13.95;3.08;;;6.50;99.90;;;;;;5031078;28;20820;-73
2023/11/26 10:48:17;;;;;;;4.18;2.33;;;6.90;99.90;;;;;;5014654;28;20059;-73
2023/11/26 10:50:56;;;;;;;6.40;3.00;;;6.60;99.90;;;;;;5014701;28;20049;-73
2023/11/26 10:53:28;;;;;;;4.63;2.40;;;6.40;99.90;;;;;;5015923;28;20439;-73
2023/11/26 10:55:58;;;;;;;4.72;2.70;;;6.50;99.90;;;;;;5014532;28;20052;-73
2023/11/26 10:58:28;;;;;;;8.45;2.65;;;6.20;99.90;;;;;;5014470;28;20099;-73
2023/11/26 11:00:58;;;;;;;3.65;2.22;;;6.40;99.90;;;;;;5014655;28;20494;-73
2023/11/26 11:03:25;;;;;;;4.20;2.30;;;6.40;99.90;;;;;;5018366;28;20548;-73
2023/11/26 11:05:51;;;;;;;4.75;2.53;;;6.30;99.90;;;;;;5019133;28;20072;-73
2023/11/26 11:08:17;;;;;;;3.03;2.03;;;6.40;99.90;;;;;;5014507;28;20051;-74
2023/11/26 11:11:25;;;;;;;6.70;2.45;;;6.30;99.90;;;;;;5029573;28;20112;-73
2023/11/26 11:13:53;;;;;;;12.23;3.45;;;6.50;99.90;;;;;;5033360;28;20094;-74
2023/11/26 11:16:19;;;;;;;2.88;1.65;;;6.70;99.90;;;;;;5052570;28;20024;-73
2023/11/26 11:18:46;;;;;;;5.55;3.15;;;6.80;99.90;;;;;;5035494;28;20473;-73
2023/11/26 11:21:16;;;;;;;4.63;2.20;;;7.10;99.90;;;;;;5018663;28;20037;-73
2023/11/26 11:23:49;;;;;;;4.72;2.22;;;7.20;99.90;;;;;;5035869;28;20025;-73
2023/11/26 11:26:17;;;;;;;7.85;2.00;;;7.10;99.90;;;;;;5017295;28;20033;-73
2023/11/26 11:28:49;;;;;;;6.57;3.22;;;6.80;99.90;;;;;;5031880;28;20394;-73
2023/11/26 11:31:18;;;;;;;5.78;2.80;;;7.10;99.90;;;;;;5014881;28;20033;-73
2023/11/26 11:33:57;;;;;;;5.32;2.50;;;7.20;99.90;;;;;;5053496;28;20032;-73
2023/11/26 11:36:41;;;;;;;3.22;1.65;;;7.20;99.90;;;;;;5034938;28;20037;-74
2023/11/26 11:39:09;;;;;;;10.90;2.85;;;7.30;99.90;;;;;;5052968;28;20033;-73
2023/11/26 11:42:09;;;;;;;6.38;2.50;;;7.40;99.90;;;;;;5031523;28;20559;-73
2023/11/26 11:44:42;;;;;;;6.32;2.17;;;7.10;99.90;;;;;;5027012;28;20541;-73
2023/11/26 11:47:33;;;;;;;13.13;3.33;;;7.20;99.90;;;;;;5048203;28;20037;-73
2023/11/26 11:50:06;;;;;;;4.07;2.47;;;7.30;99.90;;;;;;5031672;28;20033;-73
2023/11/26 11:52:32;;;;;;;9.40;2.17;;;7.20;99.90;;;;;;5052976;28;20075;-74
2023/11/26 11:54:57;;;;;;;1.77;1.08;;;7.20;99.90;;;;;;5031970;28;20120;-73
2023/11/26 11:57:26;;;;;;;1.92;1.00;;;7.30;99.90;;;;;;5034587;28;20401;-73
2023/11/26 11:59:54;;;;;;;2.47;1.10;;;7.20;99.90;;;;;;5049475;28;20037;-73
2023/11/26 12:02:23;;;;;;;4.88;1.13;;;7.20;99.90;;;;;;5033595;28;20033;-73
2023/11/26 12:04:50;;;;;;;5.70;1.10;;;7.20;99.90;;;;;;5049967;28;20481;-73
2023/11/26 12:07:28;;;;;;;6.45;1.98;;;7.20;99.90;;;;;;5049356;28;20481;-73
2023/11/26 12:09:54;;;;;;;3.40;1.75;;;7.10;99.90;;;;;;5028912;28;20028;-73
2023/11/26 12:12:20;;;;;;;14.55;2.65;;;7.10;99.90;;;;;;5032908;28;20025;-73
2023/11/26 12:14:46;;;;;;;2.78;1.05;;;7.10;99.90;;;;;;5014884;28;20394;-72
2023/11/26 12:17:13;;;;;;;1.58;1.13;;;7.00;99.90;;;;;;5030466;28;20036;-75
2023/11/26 12:19:41;;;;;;;2.40;1.40;;;7.00;99.90;;;;;;5051147;28;20021;-73
2023/11/26 12:22:09;;;;;;;16.55;1.80;;;7.00;99.90;;;;;;5008180;28;20034;-75
2023/11/26 12:24:37;;;;;;;3.20;1.52;;;6.90;99.90;;;;;;5009869;28;20179;-74
2023/11/26 12:27:03;;;;;;;6.85;1.52;;;6.80;99.90;;;;;;4990445;28;20049;-73
2023/11/26 12:29:34;;;;;;;0.88;0.55;;;6.80;99.90;;;;;;4976415;28;20041;-75
2023/11/26 12:32:05;;;;;;;2.80;1.27;;;6.80;99.90;;;;;;4992981;28;20042;-74
2023/11/26 12:34:40;;;;;;;2.83;1.40;;;6.70;99.90;;;;;;4993521;28;20030;-74
2023/11/26 12:37:10;;;;;;;0.68;0.60;;;6.80;99.90;;;;;;5008930;28;20034;-74
2023/11/26 12:39:40;;;;;;;1.83;1.33;;;6.70;99.90;;;;;;5000431;28;20034;-74
2023/11/26 12:42:06;;;;;;;0.67;0.57;;;6.70;99.90;;;;;;4988239;28;20068;-73
2023/11/26 12:44:33;;;;;;;3.75;1.50;;;6.60;99.90;;;;;;4993744;28;20041;-73
2023/11/26 12:47:10;;;;;;;4.20;1.17;;;6.60;99.90;;;;;;5006197;28;20069;-74
2023/11/26 12:49:39;;;;;;;3.25;1.95;;;6.50;99.90;;;;;;5001399;28;20037;-74
2023/11/26 12:52:09;;;;;;;2.80;1.23;;;6.50;99.90;;;;;;4993139;28;20037;-74
2023/11/26 12:54:36;;;;;;;2.97;1.13;;;6.40;99.90;;;;;;5033336;28;20043;-74
2023/11/26 12:57:03;;;;;;;2.70;1.80;;;6.30;99.90;;;;;;5034281;28;20455;-73
2023/11/26 12:59:29;;;;;;;1.25;0.90;;;6.20;99.90;;;;;;5042660;28;20082;-73
2023/11/26 13:01:55;;;;;;;1.20;1.10;;;6.10;99.90;;;;;;5032850;28;20052;-74
2023/11/26 13:04:30;;;;;;;1.15;0.80;;;6.00;99.90;;;;;;5033080;28;20061;-73